createdAt,value
2022-12-17T00:00:32.166Z,-4.38
2022-12-17T00:00:50.772Z,-4.38
2022-12-17T00:01:21.703Z,-4.38
2022-12-17T00:01:52.717Z,-4.38
2022-12-17T00:02:23.849Z,-4.38
2022-12-17T00:02:54.994Z,-4.38
2022-12-17T00:03:25.861Z,-4.38
2022-12-17T00:03:57.171Z,-4.38
2022-12-17T00:04:27.734Z,-4.38
2022-12-17T00:04:59.721Z,-4.50
2022-12-17T00:05:29.710Z,-4.50
2022-12-17T00:06:00.903Z,-4.50
2022-12-17T00:06:31.751Z,-4.50
2022-12-17T00:07:02.849Z,-4.50
2022-12-17T00:07:33.732Z,-4.50
2022-12-17T00:08:04.818Z,-4.50
2022-12-17T00:08:35.694Z,-4.50
2022-12-17T00:09:06.730Z,-4.50
2022-12-17T00:09:37.719Z,-4.50
2022-12-17T00:10:09.757Z,-4.50
2022-12-17T00:10:39.725Z,-4.50
2022-12-17T00:11:10.715Z,-4.50
2022-12-17T00:11:41.764Z,-4.50
2022-12-17T00:12:12.745Z,-4.50
2022-12-17T00:12:43.699Z,-4.50
2022-12-17T00:13:14.701Z,-4.50
2022-12-17T00:13:45.712Z,-4.50
2022-12-17T00:14:16.805Z,-4.50
2022-12-17T00:14:47.754Z,-4.50
2022-12-17T00:15:32.022Z,-4.50
2022-12-17T00:15:49.747Z,-4.50
2022-12-17T00:16:20.792Z,-4.50
2022-12-17T00:16:51.695Z,-4.50
2022-12-17T00:17:22.779Z,-4.61
2022-12-17T00:17:53.705Z,-4.50
2022-12-17T00:18:24.707Z,-4.61
2022-12-17T00:18:56.350Z,-4.61
2022-12-17T00:19:26.790Z,-4.61
2022-12-17T00:19:57.736Z,-4.61
2022-12-17T00:20:29.749Z,-4.61
2022-12-17T00:20:59.696Z,-4.61
2022-12-17T00:21:30.814Z,-4.61
2022-12-17T00:22:01.725Z,-4.61
2022-12-17T00:22:32.701Z,-4.61
2022-12-17T00:23:03.796Z,-4.61
2022-12-17T00:23:34.956Z,-4.61
2022-12-17T00:24:05.720Z,-4.61
2022-12-17T00:24:36.720Z,-4.61
2022-12-17T00:25:07.710Z,-4.61
2022-12-17T00:25:39.704Z,-4.61
2022-12-17T00:26:09.688Z,-4.61
2022-12-17T00:26:40.712Z,-4.61
2022-12-17T00:27:11.703Z,-4.61
2022-12-17T00:27:42.764Z,-4.61
2022-12-17T00:28:13.743Z,-4.61
2022-12-17T00:28:44.726Z,-4.61
2022-12-17T00:29:15.762Z,-4.61
2022-12-17T00:29:46.735Z,-4.61
2022-12-17T00:30:30.042Z,-4.61
2022-12-17T00:30:49.720Z,-4.61
2022-12-17T00:31:19.804Z,-4.61
2022-12-17T00:31:50.731Z,-4.61
2022-12-17T00:32:21.755Z,-4.61
2022-12-17T00:32:52.748Z,-4.61
2022-12-17T00:33:23.710Z,-4.61
2022-12-17T00:33:54.692Z,-4.61
2022-12-17T00:34:25.702Z,-4.61
2022-12-17T00:34:56.722Z,-4.61
2022-12-17T00:35:27.707Z,-4.61
2022-12-17T00:35:59.733Z,-4.61
2022-12-17T00:36:29.753Z,-4.61
2022-12-17T00:37:00.913Z,-4.61
2022-12-17T00:37:31.939Z,-4.72
2022-12-17T00:38:02.910Z,-4.72
2022-12-17T00:38:33.700Z,-4.72
2022-12-17T00:39:04.743Z,-4.72
2022-12-17T00:39:35.734Z,-4.72
2022-12-17T00:40:06.812Z,-4.72
2022-12-17T00:40:37.680Z,-4.72
2022-12-17T00:41:09.735Z,-4.72
2022-12-17T00:41:39.705Z,-4.72
2022-12-17T00:42:10.763Z,-4.72
2022-12-17T00:42:41.696Z,-4.72
2022-12-17T00:43:12.723Z,-4.72
2022-12-17T00:43:43.703Z,-4.72
2022-12-17T00:44:14.691Z,-4.72
2022-12-17T00:44:45.718Z,-4.72
2022-12-17T00:45:29.031Z,-4.72
2022-12-17T00:45:47.718Z,-4.72
2022-12-17T00:46:19.767Z,-4.72
2022-12-17T00:46:49.830Z,-4.72
2022-12-17T00:47:20.693Z,-4.72
2022-12-17T00:47:51.751Z,-4.72
2022-12-17T00:48:22.774Z,-4.72
2022-12-17T00:48:53.722Z,-4.72
2022-12-17T00:49:24.705Z,-4.72
2022-12-17T00:49:56.227Z,-4.72
2022-12-17T00:50:26.757Z,-4.72
2022-12-17T00:50:57.710Z,-4.72
2022-12-17T00:51:29.707Z,-4.72
2022-12-17T00:51:59.707Z,-4.72
2022-12-17T00:52:30.754Z,-4.72
2022-12-17T00:53:01.739Z,-4.72
2022-12-17T00:53:33.098Z,-4.72
2022-12-17T00:54:03.743Z,-4.72
2022-12-17T00:54:34.766Z,-4.72
2022-12-17T00:55:05.706Z,-4.72
2022-12-17T00:55:36.758Z,-4.72
2022-12-17T00:56:07.737Z,-4.72
2022-12-17T00:56:39.701Z,-4.72
2022-12-17T00:57:09.700Z,-4.72
2022-12-17T00:57:40.722Z,-4.72
2022-12-17T00:58:11.690Z,-4.72
2022-12-17T00:58:42.707Z,-4.72
2022-12-17T00:59:13.742Z,-4.72
2022-12-17T00:59:44.707Z,-4.72
2022-12-17T01:00:28.118Z,-4.72
2022-12-17T01:00:46.932Z,-4.72
2022-12-17T01:01:17.897Z,-4.72
2022-12-17T01:01:50.081Z,-4.72
2022-12-17T01:02:19.912Z,-4.72
2022-12-17T01:02:50.957Z,-4.72
2022-12-17T01:03:21.695Z,-4.72
2022-12-17T01:03:52.771Z,-4.72
2022-12-17T01:04:23.701Z,-4.72
2022-12-17T01:04:54.686Z,-4.72
2022-12-17T01:05:25.690Z,-4.72
2022-12-17T01:05:56.713Z,-4.72
2022-12-17T01:06:27.749Z,-4.77
2022-12-17T01:06:59.692Z,-4.77
2022-12-17T01:07:29.693Z,-4.77
2022-12-17T01:08:00.907Z,-4.77
2022-12-17T01:08:31.712Z,-4.77
2022-12-17T01:09:02.790Z,-4.77
2022-12-17T01:09:33.750Z,-4.77
2022-12-17T01:10:04.925Z,-4.77
2022-12-17T01:10:35.796Z,-4.77
2022-12-17T01:11:06.704Z,-4.77
2022-12-17T01:11:37.703Z,-4.77
2022-12-17T01:12:09.681Z,-4.77
2022-12-17T01:12:39.729Z,-4.77
2022-12-17T01:13:10.694Z,-4.77
2022-12-17T01:13:41.680Z,-4.77
2022-12-17T01:14:12.821Z,-4.77
2022-12-17T01:14:43.691Z,-4.77
2022-12-17T01:15:27.028Z,-4.77
2022-12-17T01:15:45.713Z,-4.77
2022-12-17T01:16:16.746Z,-4.77
2022-12-17T01:16:47.780Z,-4.77
2022-12-17T01:17:19.685Z,-4.77
2022-12-17T01:17:49.705Z,-4.77
2022-12-17T01:18:20.747Z,-4.77
2022-12-17T01:18:51.700Z,-4.77
2022-12-17T01:19:22.754Z,-4.77
2022-12-17T01:19:53.691Z,-4.77
2022-12-17T01:20:24.734Z,-4.77
2022-12-17T01:20:55.699Z,-4.77
2022-12-17T01:21:26.695Z,-4.77
2022-12-17T01:21:57.783Z,-4.77
2022-12-17T01:22:29.705Z,-4.77
2022-12-17T01:22:59.695Z,-4.77
2022-12-17T01:23:30.756Z,-4.77
2022-12-17T01:24:01.707Z,-4.77
2022-12-17T01:24:32.720Z,-4.77
2022-12-17T01:25:03.741Z,-4.88
2022-12-17T01:25:34.722Z,-4.88
2022-12-17T01:26:05.714Z,-4.88
2022-12-17T01:26:36.713Z,-4.77
2022-12-17T01:27:07.722Z,-4.77
2022-12-17T01:27:39.692Z,-4.77
2022-12-17T01:28:09.702Z,-4.77
2022-12-17T01:28:40.730Z,-4.88
2022-12-17T01:29:11.682Z,-4.88
2022-12-17T01:29:42.709Z,-4.88
2022-12-17T01:30:26.075Z,-4.88
2022-12-17T01:30:44.738Z,-4.88
2022-12-17T01:31:15.819Z,-4.88
2022-12-17T01:31:46.752Z,-4.88
2022-12-17T01:32:17.700Z,-4.88
2022-12-17T01:32:49.675Z,-4.88
2022-12-17T01:33:19.705Z,-4.88
2022-12-17T01:33:50.752Z,-4.88
2022-12-17T01:34:21.702Z,-4.88
2022-12-17T01:34:52.734Z,-4.88
2022-12-17T01:35:23.686Z,-4.88
2022-12-17T01:35:54.689Z,-4.88
2022-12-17T01:36:25.759Z,-4.88
2022-12-17T01:36:56.731Z,-4.88
2022-12-17T01:37:27.712Z,-4.88
2022-12-17T01:37:59.687Z,-4.88
2022-12-17T01:38:29.693Z,-4.88
2022-12-17T01:39:00.887Z,-4.88
2022-12-17T01:39:31.692Z,-4.88
2022-12-17T01:40:02.839Z,-4.88
2022-12-17T01:40:33.778Z,-4.88
2022-12-17T01:41:04.716Z,-4.88
2022-12-17T01:41:35.760Z,-4.88
2022-12-17T01:42:06.765Z,-4.88
2022-12-17T01:42:37.680Z,-4.88
2022-12-17T01:43:09.681Z,-4.88
2022-12-17T01:43:39.682Z,-4.88
2022-12-17T01:44:10.735Z,-4.88
2022-12-17T01:44:41.693Z,-4.88
2022-12-17T01:45:25.152Z,-4.88
2022-12-17T01:45:43.766Z,-4.88
2022-12-17T01:46:14.813Z,-4.88
2022-12-17T01:46:46.587Z,-4.88
2022-12-17T01:47:16.743Z,-4.88
2022-12-17T01:47:47.702Z,-5.00
2022-12-17T01:48:19.711Z,-5.00
2022-12-17T01:48:49.689Z,-5.00
2022-12-17T01:49:20.678Z,-5.00
2022-12-17T01:49:51.693Z,-5.00
2022-12-17T01:50:22.680Z,-5.00
2022-12-17T01:50:53.695Z,-5.00
2022-12-17T01:51:24.690Z,-5.00
2022-12-17T01:51:55.741Z,-5.00
2022-12-17T01:52:26.692Z,-5.00
2022-12-17T01:52:58.731Z,-5.00
2022-12-17T01:53:29.738Z,-5.00
2022-12-17T01:53:59.673Z,-5.00
2022-12-17T01:54:30.703Z,-5.00
2022-12-17T01:55:01.695Z,-5.00
2022-12-17T01:55:32.691Z,-5.00
2022-12-17T01:56:03.786Z,-5.00
2022-12-17T01:56:34.697Z,-5.00
2022-12-17T01:57:05.742Z,-5.00
2022-12-17T01:57:36.699Z,-5.00
2022-12-17T01:58:07.709Z,-5.00
2022-12-17T01:58:39.696Z,-5.00
2022-12-17T01:59:09.697Z,-5.00
2022-12-17T01:59:40.670Z,-5.00
2022-12-17T02:00:24.084Z,-5.00
2022-12-17T02:00:42.810Z,-5.00
2022-12-17T02:01:13.961Z,-5.00
2022-12-17T02:01:44.903Z,-5.00
2022-12-17T02:02:16.818Z,-5.00
2022-12-17T02:02:46.893Z,-5.11
2022-12-17T02:03:17.741Z,-5.11
2022-12-17T02:03:49.738Z,-5.11
2022-12-17T02:04:19.681Z,-5.11
2022-12-17T02:04:50.679Z,-5.11
2022-12-17T02:05:21.671Z,-5.11
2022-12-17T02:05:52.756Z,-5.11
2022-12-17T02:06:23.674Z,-5.11
2022-12-17T02:06:54.677Z,-5.11
2022-12-17T02:07:25.776Z,-5.11
2022-12-17T02:07:56.707Z,-5.11
2022-12-17T02:08:27.753Z,-5.11
2022-12-17T02:08:59.741Z,-5.11
2022-12-17T02:09:29.694Z,-5.11
2022-12-17T02:10:01.015Z,-5.11
2022-12-17T02:10:31.721Z,-5.11
2022-12-17T02:11:02.831Z,-5.11
2022-12-17T02:11:33.686Z,-5.11
2022-12-17T02:12:04.746Z,-5.11
2022-12-17T02:12:35.699Z,-5.11
2022-12-17T02:13:06.679Z,-5.11
2022-12-17T02:13:38.109Z,-5.11
2022-12-17T02:14:09.777Z,-5.11
2022-12-17T02:14:39.674Z,-5.11
2022-12-17T02:15:23.039Z,-5.11
2022-12-17T02:15:41.680Z,-5.11
2022-12-17T02:16:12.863Z,-5.11
2022-12-17T02:16:43.764Z,-5.11
2022-12-17T02:17:14.666Z,-5.11
2022-12-17T02:17:45.698Z,-5.11
2022-12-17T02:18:16.742Z,-5.11
2022-12-17T02:18:47.687Z,-5.11
2022-12-17T02:19:20.480Z,-5.11
2022-12-17T02:19:49.703Z,-5.11
2022-12-17T02:20:20.729Z,-5.11
2022-12-17T02:20:51.671Z,-5.11
2022-12-17T02:21:22.736Z,-5.11
2022-12-17T02:21:53.716Z,-5.11
2022-12-17T02:22:24.678Z,-5.11
2022-12-17T02:22:55.712Z,-5.11
2022-12-17T02:23:26.685Z,-5.11
2022-12-17T02:23:57.782Z,-5.11
2022-12-17T02:24:29.688Z,-5.11
2022-12-17T02:24:59.684Z,-5.11
2022-12-17T02:25:30.763Z,-5.11
2022-12-17T02:26:01.697Z,-5.11
2022-12-17T02:26:32.732Z,-5.11
2022-12-17T02:27:03.707Z,-5.11
2022-12-17T02:27:34.770Z,-5.11
2022-12-17T02:28:05.704Z,-5.11
2022-12-17T02:28:36.719Z,-5.11
2022-12-17T02:29:07.734Z,-5.11
2022-12-17T02:29:39.672Z,-5.11
2022-12-17T02:30:22.140Z,-5.11
2022-12-17T02:30:40.842Z,-5.11
2022-12-17T02:31:11.803Z,-5.11
2022-12-17T02:31:42.806Z,-5.11
2022-12-17T02:32:13.711Z,-5.11
2022-12-17T02:32:44.664Z,-5.11
2022-12-17T02:33:15.681Z,-5.11
2022-12-17T02:33:46.724Z,-5.11
2022-12-17T02:34:17.686Z,-5.11
2022-12-17T02:34:49.697Z,-5.11
2022-12-17T02:35:19.738Z,-5.11
2022-12-17T02:35:50.708Z,-5.11
2022-12-17T02:36:21.717Z,-5.11
2022-12-17T02:36:52.701Z,-5.11
2022-12-17T02:37:23.672Z,-5.11
2022-12-17T02:37:54.679Z,-5.11
2022-12-17T02:38:25.754Z,-5.11
2022-12-17T02:38:56.897Z,-5.11
2022-12-17T02:39:27.760Z,-5.11
2022-12-17T02:39:59.680Z,-5.11
2022-12-17T02:40:29.707Z,-5.11
2022-12-17T02:41:00.946Z,-5.11
2022-12-17T02:41:31.732Z,-5.11
2022-12-17T02:42:02.832Z,-5.11
2022-12-17T02:42:33.779Z,-5.11
2022-12-17T02:43:04.894Z,-5.11
2022-12-17T02:43:35.951Z,-5.11
2022-12-17T02:44:06.710Z,-5.11
2022-12-17T02:44:37.755Z,-5.11
2022-12-17T02:45:22.016Z,-5.11
2022-12-17T02:45:39.718Z,-5.11
2022-12-17T02:46:10.694Z,-5.11
2022-12-17T02:46:41.686Z,-5.11
2022-12-17T02:47:12.835Z,-5.11
2022-12-17T02:47:43.670Z,-5.11
2022-12-17T02:48:14.684Z,-5.11
2022-12-17T02:48:45.758Z,-5.11
2022-12-17T02:49:16.674Z,-5.11
2022-12-17T02:49:47.792Z,-5.11
2022-12-17T02:50:19.691Z,-5.11
2022-12-17T02:50:49.714Z,-5.11
2022-12-17T02:51:20.752Z,-5.11
2022-12-17T02:51:51.664Z,-5.11
2022-12-17T02:52:22.704Z,-5.11
2022-12-17T02:52:53.667Z,-5.11
2022-12-17T02:53:24.716Z,-5.11
2022-12-17T02:53:55.666Z,-5.11
2022-12-17T02:54:26.685Z,-5.11
2022-12-17T02:54:57.754Z,-5.11
2022-12-17T02:55:29.671Z,-5.11
2022-12-17T02:55:59.665Z,-5.11
2022-12-17T02:56:30.698Z,-5.11
2022-12-17T02:57:01.701Z,-5.11
2022-12-17T02:57:32.708Z,-5.11
2022-12-17T02:58:03.702Z,-5.11
2022-12-17T02:58:34.713Z,-5.11
2022-12-17T02:59:05.689Z,-5.11
2022-12-17T02:59:36.660Z,-5.11
2022-12-17T03:00:20.078Z,-5.11
2022-12-17T03:00:39.680Z,-5.11
2022-12-17T03:01:09.719Z,-5.11
2022-12-17T03:01:40.885Z,-5.11
2022-12-17T03:02:11.873Z,-5.11
2022-12-17T03:02:45.887Z,-5.11
2022-12-17T03:03:13.824Z,-5.11
2022-12-17T03:03:48.796Z,-5.11
2022-12-17T03:04:15.695Z,-5.11
2022-12-17T03:04:46.652Z,-5.11
2022-12-17T03:05:43.460Z,-5.11
2022-12-17T03:05:49.723Z,-5.11
2022-12-17T03:06:19.830Z,-5.11
2022-12-17T03:06:50.729Z,-5.11
2022-12-17T03:07:21.731Z,-5.11
2022-12-17T03:07:52.687Z,-5.11
2022-12-17T03:08:23.671Z,-5.11
2022-12-17T03:08:54.671Z,-5.11
2022-12-17T03:09:25.713Z,-5.11
2022-12-17T03:09:56.678Z,-5.11
2022-12-17T03:10:27.787Z,-5.11
2022-12-17T03:10:59.723Z,-5.11
2022-12-17T03:11:29.737Z,-5.11
2022-12-17T03:12:00.883Z,-5.11
2022-12-17T03:12:31.654Z,-5.11
2022-12-17T03:13:02.795Z,-5.11
2022-12-17T03:13:34.042Z,-5.11
2022-12-17T03:14:04.677Z,-5.11
2022-12-17T03:14:35.660Z,-5.11
2022-12-17T03:15:19.058Z,-5.11
2022-12-17T03:15:37.679Z,-5.11
2022-12-17T03:16:09.747Z,-5.11
2022-12-17T03:16:39.687Z,-5.11
2022-12-17T03:17:10.843Z,-5.11
2022-12-17T03:17:41.704Z,-5.11
2022-12-17T03:18:12.746Z,-5.22
2022-12-17T03:18:43.662Z,-5.22
2022-12-17T03:19:14.684Z,-5.22
2022-12-17T03:19:45.658Z,-5.22
2022-12-17T03:20:16.713Z,-5.22
2022-12-17T03:20:47.664Z,-5.22
2022-12-17T03:21:19.673Z,-5.22
2022-12-17T03:21:50.702Z,-5.22
2022-12-17T03:22:20.680Z,-5.22
2022-12-17T03:22:51.749Z,-5.22
2022-12-17T03:23:22.685Z,-5.22
2022-12-17T03:23:53.660Z,-5.22
2022-12-17T03:24:24.701Z,-5.22
2022-12-17T03:24:55.694Z,-5.22
2022-12-17T03:25:26.663Z,-5.22
2022-12-17T03:25:57.669Z,-5.22
2022-12-17T03:26:29.743Z,-5.22
2022-12-17T03:26:59.664Z,-5.22
2022-12-17T03:27:30.668Z,-5.22
2022-12-17T03:28:01.672Z,-5.22
2022-12-17T03:28:32.691Z,-5.22
2022-12-17T03:29:03.714Z,-5.22
2022-12-17T03:29:34.849Z,-5.22
2022-12-17T03:30:18.072Z,-5.11
2022-12-17T03:30:38.517Z,-5.11
2022-12-17T03:31:07.789Z,-5.11
2022-12-17T03:31:39.778Z,-5.22
2022-12-17T03:32:09.700Z,-5.11
2022-12-17T03:32:40.715Z,-5.22
2022-12-17T03:33:12.760Z,-5.22
2022-12-17T03:33:42.742Z,-5.22
2022-12-17T03:34:13.649Z,-5.22
2022-12-17T03:34:44.725Z,-5.22
2022-12-17T03:35:15.666Z,-5.22
2022-12-17T03:35:46.675Z,-5.22
2022-12-17T03:36:17.652Z,-5.22
2022-12-17T03:36:49.739Z,-5.22
2022-12-17T03:37:19.651Z,-5.22
2022-12-17T03:37:50.729Z,-5.22
2022-12-17T03:38:21.684Z,-5.22
2022-12-17T03:38:52.669Z,-5.22
2022-12-17T03:39:23.635Z,-5.22
2022-12-17T03:39:54.650Z,-5.22
2022-12-17T03:40:25.758Z,-5.22
2022-12-17T03:40:56.662Z,-5.22
2022-12-17T03:41:27.642Z,-5.22
2022-12-17T03:41:59.657Z,-5.22
2022-12-17T03:42:29.641Z,-5.22
2022-12-17T03:43:00.874Z,-5.22
2022-12-17T03:43:31.647Z,-5.22
2022-12-17T03:44:02.747Z,-5.22
2022-12-17T03:44:33.712Z,-5.22
2022-12-17T03:45:17.049Z,-5.22
2022-12-17T03:45:35.701Z,-5.22
2022-12-17T03:46:06.762Z,-5.22
2022-12-17T03:46:37.701Z,-5.27
2022-12-17T03:47:09.664Z,-5.27
2022-12-17T03:47:39.657Z,-5.27
2022-12-17T03:48:10.706Z,-5.27
2022-12-17T03:48:41.679Z,-5.27
2022-12-17T03:49:12.638Z,-5.27
2022-12-17T03:49:43.704Z,-5.27
2022-12-17T03:50:14.667Z,-5.27
2022-12-17T03:50:45.650Z,-5.27
2022-12-17T03:51:16.663Z,-5.27
2022-12-17T03:51:47.663Z,-5.38
2022-12-17T03:52:19.812Z,-5.38
2022-12-17T03:52:49.667Z,-5.38
2022-12-17T03:53:20.669Z,-5.38
2022-12-17T03:53:51.659Z,-5.38
2022-12-17T03:54:22.706Z,-5.38
2022-12-17T03:54:53.698Z,-5.38
2022-12-17T03:55:24.643Z,-5.38
2022-12-17T03:55:55.690Z,-5.50
2022-12-17T03:56:26.661Z,-5.50
2022-12-17T03:56:57.731Z,-5.50
2022-12-17T03:57:29.662Z,-5.50
2022-12-17T03:57:59.649Z,-5.50
2022-12-17T03:58:30.698Z,-5.50
2022-12-17T03:59:01.701Z,-5.50
2022-12-17T03:59:32.674Z,-5.50
2022-12-17T04:00:16.028Z,-5.50
2022-12-17T04:00:34.667Z,-5.50
2022-12-17T04:01:05.721Z,-5.50
2022-12-17T04:01:36.788Z,-5.50
2022-12-17T04:02:07.797Z,-5.50
2022-12-17T04:02:39.876Z,-5.50
2022-12-17T04:03:09.833Z,-5.50
2022-12-17T04:03:40.846Z,-5.50
2022-12-17T04:04:11.645Z,-5.50
2022-12-17T04:04:42.654Z,-5.50
2022-12-17T04:05:19.693Z,-5.50
2022-12-17T04:05:44.643Z,-5.50
2022-12-17T04:06:15.689Z,-5.50
2022-12-17T04:06:46.653Z,-5.50
2022-12-17T04:07:17.627Z,-5.50
2022-12-17T04:07:49.655Z,-5.50
2022-12-17T04:08:19.642Z,-5.50
2022-12-17T04:08:50.708Z,-5.50
2022-12-17T04:09:21.631Z,-5.50
2022-12-17T04:09:52.692Z,-5.50
2022-12-17T04:10:23.701Z,-5.50
2022-12-17T04:10:54.699Z,-5.50
2022-12-17T04:11:25.634Z,-5.50
2022-12-17T04:11:56.675Z,-5.50
2022-12-17T04:12:27.651Z,-5.50
2022-12-17T04:12:59.651Z,-5.50
2022-12-17T04:13:29.677Z,-5.50
2022-12-17T04:14:00.809Z,-5.50
2022-12-17T04:14:31.673Z,-5.50
2022-12-17T04:15:15.159Z,-5.50
2022-12-17T04:15:33.693Z,-5.50
2022-12-17T04:16:04.893Z,-5.50
2022-12-17T04:16:35.632Z,-5.50
2022-12-17T04:17:06.643Z,-5.50
2022-12-17T04:17:37.710Z,-5.50
2022-12-17T04:18:09.742Z,-5.50
2022-12-17T04:18:39.629Z,-5.50
2022-12-17T04:19:10.653Z,-5.50
2022-12-17T04:19:41.651Z,-5.50
2022-12-17T04:20:12.679Z,-5.50
2022-12-17T04:20:43.647Z,-5.50
2022-12-17T04:21:14.647Z,-5.50
2022-12-17T04:21:45.635Z,-5.50
2022-12-17T04:22:16.654Z,-5.50
2022-12-17T04:22:47.641Z,-5.50
2022-12-17T04:23:19.793Z,-5.50
2022-12-17T04:23:49.670Z,-5.50
2022-12-17T04:24:20.685Z,-5.50
2022-12-17T04:24:51.640Z,-5.50
2022-12-17T04:25:22.664Z,-5.50
2022-12-17T04:25:53.683Z,-5.50
2022-12-17T04:26:24.654Z,-5.50
2022-12-17T04:26:56.657Z,-5.50
2022-12-17T04:27:26.641Z,-5.50
2022-12-17T04:27:57.633Z,-5.50
2022-12-17T04:28:29.633Z,-5.50
2022-12-17T04:28:59.634Z,-5.50
2022-12-17T04:29:30.645Z,-5.50
2022-12-17T04:30:14.031Z,-5.50
2022-12-17T04:30:32.648Z,-5.50
2022-12-17T04:31:03.764Z,-5.50
2022-12-17T04:31:34.763Z,-5.50
2022-12-17T04:32:05.688Z,-5.50
2022-12-17T04:32:36.688Z,-5.50
2022-12-17T04:33:07.670Z,-5.50
2022-12-17T04:33:39.922Z,-5.50
2022-12-17T04:34:09.653Z,-5.50
2022-12-17T04:34:40.646Z,-5.50
2022-12-17T04:35:11.700Z,-5.50
2022-12-17T04:35:42.644Z,-5.50
2022-12-17T04:36:13.644Z,-5.50
2022-12-17T04:36:44.636Z,-5.50
2022-12-17T04:37:15.731Z,-5.50
2022-12-17T04:37:46.631Z,-5.50
2022-12-17T04:38:17.632Z,-5.50
2022-12-17T04:38:49.892Z,-5.50
2022-12-17T04:39:19.906Z,-5.50
2022-12-17T04:39:50.684Z,-5.50
2022-12-17T04:40:21.632Z,-5.50
2022-12-17T04:40:52.654Z,-5.50
2022-12-17T04:41:23.631Z,-5.50
2022-12-17T04:41:54.641Z,-5.50
2022-12-17T04:42:25.633Z,-5.50
2022-12-17T04:42:56.693Z,-5.50
2022-12-17T04:43:27.673Z,-5.50
2022-12-17T04:44:02.995Z,-5.50
2022-12-17T04:44:29.652Z,-5.50
2022-12-17T04:45:13.238Z,-5.50
2022-12-17T04:45:31.676Z,-5.50
2022-12-17T04:46:02.831Z,-5.50
2022-12-17T04:46:33.718Z,-5.50
2022-12-17T04:47:04.687Z,-5.50
2022-12-17T04:47:35.683Z,-5.50
2022-12-17T04:48:06.635Z,-5.50
2022-12-17T04:48:37.647Z,-5.50
2022-12-17T04:49:09.632Z,-5.50
2022-12-17T04:49:39.633Z,-5.50
2022-12-17T04:50:10.681Z,-5.50
2022-12-17T04:50:41.643Z,-5.50
2022-12-17T04:51:12.660Z,-5.50
2022-12-17T04:51:43.689Z,-5.50
2022-12-17T04:52:14.626Z,-5.50
2022-12-17T04:52:45.645Z,-5.50
2022-12-17T04:53:16.632Z,-5.50
2022-12-17T04:53:47.616Z,-5.50
2022-12-17T04:54:19.649Z,-5.50
2022-12-17T04:54:49.622Z,-5.50
2022-12-17T04:55:20.643Z,-5.50
2022-12-17T04:55:51.639Z,-5.50
2022-12-17T04:56:22.648Z,-5.50
2022-12-17T04:56:53.628Z,-5.50
2022-12-17T04:57:24.679Z,-5.61
2022-12-17T04:57:55.625Z,-5.61
2022-12-17T04:58:26.647Z,-5.61
2022-12-17T04:58:57.626Z,-5.61
2022-12-17T04:59:29.684Z,-5.61
2022-12-17T04:59:59.664Z,-5.61
2022-12-17T05:00:43.005Z,-5.61
2022-12-17T05:01:01.700Z,-5.61
2022-12-17T05:01:32.908Z,-5.61
2022-12-17T05:02:03.845Z,-5.61
2022-12-17T05:02:38.295Z,-5.61
2022-12-17T05:03:05.834Z,-5.61
2022-12-17T05:03:38.017Z,-5.61
2022-12-17T05:04:07.672Z,-5.61
2022-12-17T05:04:39.630Z,-5.61
2022-12-17T05:05:09.642Z,-5.61
2022-12-17T05:05:40.614Z,-5.61
2022-12-17T05:06:11.666Z,-5.61
2022-12-17T05:06:42.623Z,-5.61
2022-12-17T05:07:13.630Z,-5.61
2022-12-17T05:07:44.660Z,-5.61
2022-12-17T05:08:15.652Z,-5.61
2022-12-17T05:08:46.640Z,-5.61
2022-12-17T05:09:17.684Z,-5.61
2022-12-17T05:09:49.632Z,-5.61
2022-12-17T05:10:19.648Z,-5.61
2022-12-17T05:10:50.758Z,-5.61
2022-12-17T05:11:21.627Z,-5.61
2022-12-17T05:11:52.641Z,-5.61
2022-12-17T05:12:23.629Z,-5.61
2022-12-17T05:12:54.673Z,-5.61
2022-12-17T05:13:26.654Z,-5.61
2022-12-17T05:13:56.627Z,-5.61
2022-12-17T05:14:27.645Z,-5.61
2022-12-17T05:14:59.645Z,-5.61
2022-12-17T05:15:42.074Z,-5.61
2022-12-17T05:16:00.817Z,-5.72
2022-12-17T05:16:31.739Z,-5.72
2022-12-17T05:17:02.823Z,-5.72
2022-12-17T05:17:33.644Z,-5.72
2022-12-17T05:18:04.689Z,-5.72
2022-12-17T05:18:35.630Z,-5.72
2022-12-17T05:19:06.618Z,-5.72
2022-12-17T05:19:37.626Z,-5.72
2022-12-17T05:20:09.708Z,-5.72
2022-12-17T05:20:39.629Z,-5.72
2022-12-17T05:21:10.628Z,-5.72
2022-12-17T05:21:41.608Z,-5.72
2022-12-17T05:22:12.624Z,-5.72
2022-12-17T05:22:43.632Z,-5.72
2022-12-17T05:23:14.670Z,-5.72
2022-12-17T05:23:45.686Z,-5.72
2022-12-17T05:24:16.630Z,-5.72
2022-12-17T05:24:47.622Z,-5.72
2022-12-17T05:25:19.675Z,-5.72
2022-12-17T05:25:49.631Z,-5.72
2022-12-17T05:26:20.856Z,-5.77
2022-12-17T05:26:51.657Z,-5.77
2022-12-17T05:27:22.696Z,-5.77
2022-12-17T05:27:53.613Z,-5.77
2022-12-17T05:28:24.619Z,-5.77
2022-12-17T05:28:55.639Z,-5.77
2022-12-17T05:29:26.676Z,-5.77
2022-12-17T05:29:57.614Z,-5.77
2022-12-17T05:30:42.010Z,-5.77
2022-12-17T05:30:59.778Z,-5.77
2022-12-17T05:31:30.719Z,-5.77
2022-12-17T05:32:01.659Z,-5.77
2022-12-17T05:32:32.681Z,-5.77
2022-12-17T05:33:03.654Z,-5.77
2022-12-17T05:33:35.024Z,-5.77
2022-12-17T05:34:05.652Z,-5.77
2022-12-17T05:34:36.625Z,-5.77
2022-12-17T05:35:07.711Z,-5.77
2022-12-17T05:35:39.630Z,-5.77
2022-12-17T05:36:09.697Z,-5.77
2022-12-17T05:36:40.629Z,-5.77
2022-12-17T05:37:11.627Z,-5.77
2022-12-17T05:37:42.626Z,-5.77
2022-12-17T05:38:13.621Z,-5.77
2022-12-17T05:38:44.641Z,-5.77
2022-12-17T05:39:15.665Z,-5.77
2022-12-17T05:39:46.606Z,-5.77
2022-12-17T05:40:17.647Z,-5.77
2022-12-17T05:40:49.618Z,-5.77
2022-12-17T05:41:19.660Z,-5.77
2022-12-17T05:41:50.649Z,-5.77
2022-12-17T05:42:21.680Z,-5.77
2022-12-17T05:42:52.622Z,-5.77
2022-12-17T05:43:23.632Z,-5.77
2022-12-17T05:43:54.689Z,-5.77
2022-12-17T05:44:25.690Z,-5.77
2022-12-17T05:44:56.671Z,-5.77
2022-12-17T05:45:39.968Z,-5.77
2022-12-17T05:45:59.636Z,-5.77
2022-12-17T05:46:29.684Z,-5.77
2022-12-17T05:47:00.915Z,-5.77
2022-12-17T05:47:31.608Z,-5.77
2022-12-17T05:48:02.723Z,-5.77
2022-12-17T05:48:33.607Z,-5.77
2022-12-17T05:49:04.644Z,-5.77
2022-12-17T05:49:35.834Z,-5.77
2022-12-17T05:50:06.678Z,-5.77
2022-12-17T05:50:37.616Z,-5.77
2022-12-17T05:51:09.750Z,-5.77
2022-12-17T05:51:39.635Z,-5.77
2022-12-17T05:52:10.637Z,-5.77
2022-12-17T05:52:41.623Z,-5.77
2022-12-17T05:53:12.624Z,-5.77
2022-12-17T05:53:43.630Z,-5.77
2022-12-17T05:54:14.619Z,-5.77
2022-12-17T05:54:45.642Z,-5.77
2022-12-17T05:55:16.639Z,-5.77
2022-12-17T05:55:47.657Z,-5.77
2022-12-17T05:56:19.652Z,-5.77
2022-12-17T05:56:49.620Z,-5.77
2022-12-17T05:57:20.627Z,-5.77
2022-12-17T05:57:56.243Z,-5.77
2022-12-17T05:58:22.608Z,-5.77
2022-12-17T05:58:53.618Z,-5.77
2022-12-17T05:59:24.604Z,-5.77
2022-12-17T05:59:55.612Z,-5.77
2022-12-17T06:00:39.060Z,-5.77
2022-12-17T06:00:57.601Z,-5.77
2022-12-17T06:01:29.644Z,-5.77
2022-12-17T06:01:59.823Z,-5.77
2022-12-17T06:02:30.651Z,-5.77
2022-12-17T06:03:01.907Z,-5.77
2022-12-17T06:03:32.724Z,-5.77
2022-12-17T06:04:03.918Z,-5.77
2022-12-17T06:04:34.610Z,-5.77
2022-12-17T06:05:05.636Z,-5.77
2022-12-17T06:05:36.625Z,-5.77
2022-12-17T06:06:07.632Z,-5.77
2022-12-17T06:06:39.778Z,-5.77
2022-12-17T06:07:09.627Z,-5.88
2022-12-17T06:07:40.665Z,-5.88
2022-12-17T06:08:11.605Z,-5.88
2022-12-17T06:08:42.676Z,-5.88
2022-12-17T06:09:13.606Z,-5.88
2022-12-17T06:09:44.669Z,-5.88
2022-12-17T06:10:15.658Z,-5.88
2022-12-17T06:10:46.595Z,-5.88
2022-12-17T06:11:17.611Z,-5.88
2022-12-17T06:11:49.627Z,-5.88
2022-12-17T06:12:19.624Z,-5.88
2022-12-17T06:12:50.841Z,-5.88
2022-12-17T06:13:21.624Z,-5.88
2022-12-17T06:13:52.695Z,-5.88
2022-12-17T06:14:23.616Z,-5.88
2022-12-17T06:14:54.616Z,-5.88
2022-12-17T06:15:37.998Z,-5.88
2022-12-17T06:15:56.717Z,-5.88
2022-12-17T06:16:27.707Z,-5.88
2022-12-17T06:16:59.627Z,-5.88
2022-12-17T06:17:29.632Z,-5.88
2022-12-17T06:18:00.759Z,-5.88
2022-12-17T06:18:31.612Z,-5.88
2022-12-17T06:19:02.714Z,-5.88
2022-12-17T06:19:33.603Z,-5.88
2022-12-17T06:20:04.861Z,-5.88
2022-12-17T06:20:35.624Z,-5.88
2022-12-17T06:21:06.633Z,-5.88
2022-12-17T06:21:37.624Z,-5.88
2022-12-17T06:22:09.633Z,-5.88
2022-12-17T06:22:39.625Z,-5.88
2022-12-17T06:23:10.612Z,-5.88
2022-12-17T06:23:41.657Z,-5.88
2022-12-17T06:24:12.670Z,-6.00
2022-12-17T06:24:46.171Z,-6.00
2022-12-17T06:25:14.616Z,-6.00
2022-12-17T06:25:45.592Z,-6.00
2022-12-17T06:26:16.603Z,-6.00
2022-12-17T06:26:47.604Z,-6.00
2022-12-17T06:27:19.618Z,-6.00
2022-12-17T06:27:49.627Z,-6.11
2022-12-17T06:28:20.746Z,-6.11
2022-12-17T06:28:51.632Z,-6.11
2022-12-17T06:29:22.608Z,-6.11
2022-12-17T06:29:53.618Z,-6.11
2022-12-17T06:30:36.975Z,-6.11
2022-12-17T06:30:55.616Z,-6.11
2022-12-17T06:31:26.710Z,-6.11
2022-12-17T06:31:57.648Z,-6.11
2022-12-17T06:32:29.600Z,-6.11
2022-12-17T06:32:59.678Z,-6.11
2022-12-17T06:33:30.631Z,-6.11
2022-12-17T06:34:01.606Z,-6.11
2022-12-17T06:34:32.611Z,-6.22
2022-12-17T06:35:03.645Z,-6.22
2022-12-17T06:35:34.623Z,-6.22
2022-12-17T06:36:05.674Z,-6.22
2022-12-17T06:36:36.647Z,-6.22
2022-12-17T06:37:07.589Z,-6.22
2022-12-17T06:37:39.601Z,-6.22
2022-12-17T06:38:09.635Z,-6.27
2022-12-17T06:38:40.611Z,-6.27
2022-12-17T06:39:11.598Z,-6.27